Time;durP1;ratioP1;P1;durP2;ratioP2;P2;SDS_P1;SDS_P2;PMS_P1;PMS_P2;Temp;Humidity;BMP_temperature;BMP_pressure;BME280_temperature;BME280_humidity;BME280_pressure;Samples;Min_cycle;Max_cycle;Signal;HPM_P1;HPM_P2
2021/06/28 00:00:38;;;;;;;13.90;11.20;;;20.50;99.90;;;;;;5043214;28;20147;-73
2021/06/28 00:03:04;;;;;;;13.27;11.60;;;20.50;99.90;;;;;;5046745;28;20112;-72
2021/06/28 00:05:30;;;;;;;14.10;12.65;;;20.50;99.90;;;;;;5048516;28;20017;-73
2021/06/28 00:07:56;;;;;;;12.63;11.43;;;20.50;99.90;;;;;;5048662;28;20032;-72
2021/06/28 00:10:25;;;;;;;21.75;15.18;;;20.50;99.90;;;;;;5061603;28;20031;-72
2021/06/28 00:12:52;;;;;;;16.08;12.85;;;20.50;99.90;;;;;;5063902;28;20024;-72
2021/06/28 00:15:22;;;;;;;24.42;16.27;;;20.50;99.90;;;;;;5061159;28;20037;-72
2021/06/28 00:17:50;;;;;;;19.13;13.20;;;20.40;99.90;;;;;;5066530;28;20090;-72
2021/06/28 00:20:17;;;;;;;20.23;16.45;;;20.30;99.90;;;;;;5065012;28;20102;-72
2021/06/28 00:22:44;;;;;;;19.77;15.32;;;20.40;99.90;;;;;;5064318;28;20374;-72
2021/06/28 00:25:13;;;;;;;19.15;14.07;;;20.40;99.90;;;;;;5064426;28;20045;-72
2021/06/28 00:27:40;;;;;;;17.48;13.90;;;20.20;99.90;;;;;;5061444;28;20035;-72
2021/06/28 00:30:14;;;;;;;17.10;14.95;;;20.30;99.90;;;;;;5058034;28;20104;-72
2021/06/28 00:32:40;;;;;;;19.85;15.13;;;20.30;99.90;;;;;;5058725;28;20029;-72
2021/06/28 00:35:07;;;;;;;16.83;14.70;;;20.30;99.90;;;;;;5058990;28;20107;-72
2021/06/28 00:37:33;;;;;;;22.27;15.18;;;20.30;99.90;;;;;;5061618;28;20370;-72
2021/06/28 00:39:59;;;;;;;35.30;22.95;;;20.30;99.90;;;;;;5054201;28;20107;-72
2021/06/28 00:42:25;;;;;;;17.70;15.60;;;20.30;99.90;;;;;;5058777;28;20108;-72
2021/06/28 00:44:54;;;;;;;19.60;15.35;;;20.30;99.90;;;;;;5065170;28;20024;-72
2021/06/28 00:47:20;;;;;;;19.05;14.73;;;20.30;99.90;;;;;;5065696;28;20029;-72
2021/06/28 00:49:46;;;;;;;14.93;13.40;;;20.20;99.90;;;;;;5054609;28;20116;-72
2021/06/28 00:52:13;;;;;;;16.63;14.65;;;20.20;99.90;;;;;;5058450;28;20108;-72
2021/06/28 00:54:39;;;;;;;17.70;15.90;;;20.20;99.90;;;;;;5066345;28;20127;-72
2021/06/28 00:57:05;;;;;;;18.83;16.90;;;20.20;99.90;;;;;;5062916;28;20059;-72
2021/06/28 00:59:32;;;;;;;22.65;15.80;;;20.20;99.90;;;;;;5064140;28;20561;-72
2021/06/28 01:01:59;;;;;;;18.48;16.38;;;20.20;99.90;;;;;;5058826;28;20117;-72
2021/06/28 01:04:26;;;;;;;22.10;18.40;;;20.10;99.90;;;;;;5064504;28;20052;-72
2021/06/28 01:06:52;;;;;;;20.02;17.92;;;20.10;99.90;;;;;;5056983;28;20107;-72
2021/06/28 01:09:18;;;;;;;22.00;19.05;;;20.10;99.90;;;;;;5061227;28;20442;-72
2021/06/28 01:11:43;;;;;;;16.88;14.60;;;20.10;99.90;;;;;;5062919;28;20108;-72
2021/06/28 01:14:09;;;;;;;18.27;16.40;;;20.10;99.90;;;;;;5056173;28;20129;-72
2021/06/28 01:16:35;;;;;;;18.85;16.92;;;20.10;99.90;;;;;;5058253;28;20029;-72
2021/06/28 01:19:02;;;;;;;18.63;16.75;;;20.10;99.90;;;;;;5063159;28;20432;-72
2021/06/28 01:21:28;;;;;;;18.98;17.08;;;20.10;99.90;;;;;;5062591;28;20119;-72
2021/06/28 01:23:55;;;;;;;19.95;17.85;;;20.10;99.90;;;;;;5054589;28;20393;-72
2021/06/28 01:26:21;;;;;;;23.08;16.73;;;20.10;99.90;;;;;;5057597;28;20063;-72
2021/06/28 01:28:46;;;;;;;24.70;17.80;;;20.10;99.90;;;;;;5061809;28;20476;-72
2021/06/28 01:31:13;;;;;;;23.70;16.27;;;20.10;99.90;;;;;;5062974;28;20018;-72
2021/06/28 01:33:39;;;;;;;22.90;20.52;;;20.10;99.90;;;;;;5061313;28;20029;-72
2021/06/28 01:36:05;;;;;;;27.30;20.38;;;20.10;99.90;;;;;;5058848;28;20032;-72
2021/06/28 01:38:32;;;;;;;25.63;19.95;;;20.10;99.90;;;;;;5065631;28;20622;-72
2021/06/28 01:40:58;;;;;;;26.85;20.92;;;20.00;99.90;;;;;;5057877;28;20090;-72
2021/06/28 01:43:24;;;;;;;25.35;19.98;;;20.00;99.90;;;;;;5062311;28;20384;-72
2021/06/28 01:45:51;;;;;;;28.55;19.52;;;20.00;99.90;;;;;;5066704;28;20476;-72
2021/06/28 01:48:17;;;;;;;23.98;19.80;;;19.90;99.90;;;;;;5058283;28;20028;-72
2021/06/28 01:50:43;;;;;;;27.25;19.42;;;20.00;99.90;;;;;;5069821;28;20668;-72
2021/06/28 01:53:09;;;;;;;29.58;20.83;;;19.90;99.90;;;;;;5058977;28;20029;-72
2021/06/28 01:55:36;;;;;;;23.73;19.95;;;19.90;99.90;;;;;;5055061;28;20025;-72
2021/06/28 01:58:04;;;;;;;24.73;20.85;;;19.90;99.90;;;;;;5063760;28;20025;-71
2021/06/28 02:00:32;;;;;;;25.48;20.65;;;19.80;99.90;;;;;;5061293;28;20087;-72
2021/06/28 02:03:09;;;;;;;24.98;20.92;;;19.80;99.90;;;;;;5059452;28;20031;-72
2021/06/28 02:05:42;;;;;;;30.25;23.88;;;19.80;99.90;;;;;;5063395;28;20063;-72
2021/06/28 02:08:09;;;;;;;24.33;21.23;;;19.80;99.90;;;;;;5058250;28;20143;-72
2021/06/28 02:10:36;;;;;;;28.67;22.27;;;19.80;99.90;;;;;;5059245;28;20016;-72
2021/06/28 02:13:02;;;;;;;26.48;20.27;;;19.70;99.90;;;;;;5061432;28;20051;-72
2021/06/28 02:15:30;;;;;;;27.52;23.50;;;19.70;99.90;;;;;;5068392;28;20020;-73
2021/06/28 02:17:56;;;;;;;26.17;23.38;;;19.70;99.90;;;;;;5058557;28;20499;-72
2021/06/28 02:20:22;;;;;;;27.50;21.35;;;19.70;99.90;;;;;;5056563;28;20043;-72
2021/06/28 02:22:50;;;;;;;29.35;23.83;;;19.70;99.90;;;;;;5062869;28;20108;-72
2021/06/28 02:25:16;;;;;;;30.77;23.67;;;19.70;99.90;;;;;;5065091;28;20031;-72
2021/06/28 02:27:42;;;;;;;30.15;21.85;;;19.70;99.90;;;;;;5059466;28;20092;-72
2021/06/28 02:30:14;;;;;;;24.45;21.92;;;19.70;99.90;;;;;;5065289;28;20465;-72
2021/06/28 02:32:41;;;;;;;29.73;21.15;;;19.70;99.90;;;;;;5059978;28;20131;-72
2021/06/28 02:35:09;;;;;;;31.77;23.83;;;19.70;99.90;;;;;;5066326;28;20095;-71
2021/06/28 02:37:35;;;;;;;25.98;21.35;;;19.70;99.90;;;;;;5064982;28;20544;-72
2021/06/28 02:40:01;;;;;;;30.67;19.67;;;19.60;99.90;;;;;;5063606;28;20025;-72
2021/06/28 02:42:26;;;;;;;29.92;20.95;;;19.40;99.90;;;;;;5061148;28;20350;-72
2021/06/28 02:44:52;;;;;;;28.55;21.52;;;19.40;99.90;;;;;;5064578;28;20021;-72
2021/06/28 02:47:18;;;;;;;28.83;20.23;;;19.50;99.90;;;;;;5059782;28;20054;-71
2021/06/28 02:49:44;;;;;;;24.83;21.40;;;19.50;99.90;;;;;;5061713;28;20043;-71
2021/06/28 02:52:09;;;;;;;22.13;18.80;;;19.40;99.90;;;;;;5066804;28;20032;-71
2021/06/28 02:54:35;;;;;;;21.35;19.05;;;19.30;99.90;;;;;;5063735;28;20032;-71
2021/06/28 02:57:01;;;;;;;21.38;19.10;;;19.30;99.90;;;;;;5062245;28;20032;-71
2021/06/28 02:59:27;;;;;;;29.60;20.88;;;19.30;99.90;;;;;;5064455;28;20032;-71
2021/06/28 03:01:53;;;;;;;31.92;22.98;;;19.40;99.90;;;;;;5062269;28;20025;-72
2021/06/28 03:04:18;;;;;;;34.67;22.05;;;19.30;99.90;;;;;;5065325;28;20088;-71
2021/06/28 03:06:44;;;;;;;27.38;20.50;;;19.30;99.90;;;;;;5066611;28;20082;-72
2021/06/28 03:09:09;;;;;;;22.73;19.08;;;19.30;99.90;;;;;;5065404;28;20029;-71
2021/06/28 03:11:35;;;;;;;22.52;18.30;;;19.30;99.90;;;;;;5061651;28;20032;-72
2021/06/28 03:14:00;;;;;;;19.60;17.50;;;19.30;99.90;;;;;;5060620;28;20100;-71
2021/06/28 03:16:26;;;;;;;36.35;21.40;;;19.30;99.90;;;;;;5063904;28;20029;-72
2021/06/28 03:18:52;;;;;;;28.20;19.08;;;19.30;99.90;;;;;;5064013;28;20017;-74
2021/06/28 03:21:18;;;;;;;22.70;20.35;;;19.20;99.90;;;;;;5066321;28;20033;-74
2021/06/28 03:23:44;;;;;;;29.80;22.23;;;19.30;99.90;;;;;;5059366;28;20042;-71
2021/06/28 03:26:11;;;;;;;25.35;22.50;;;19.20;99.90;;;;;;5067011;28;20033;-74
2021/06/28 03:28:37;;;;;;;23.98;21.23;;;19.10;99.90;;;;;;5059772;28;20405;-72
2021/06/28 03:31:04;;;;;;;25.20;20.15;;;19.10;99.90;;;;;;5063102;28;20074;-72
2021/06/28 03:33:29;;;;;;;22.15;18.70;;;19.10;99.90;;;;;;5060093;28;20125;-72
2021/06/28 03:35:55;;;;;;;25.80;21.60;;;19.10;99.90;;;;;;5062562;28;20012;-72
2021/06/28 03:38:21;;;;;;;24.50;19.25;;;19.10;99.90;;;;;;5059771;28;20040;-72
2021/06/28 03:40:47;;;;;;;51.00;24.88;;;19.10;99.90;;;;;;5066846;28;20593;-71
2021/06/28 03:43:13;;;;;;;23.52;19.23;;;18.90;99.90;;;;;;5052119;28;20029;-72
2021/06/28 03:45:39;;;;;;;28.38;20.63;;;18.90;99.90;;;;;;5061070;28;20093;-71
2021/06/28 03:48:06;;;;;;;34.80;23.02;;;19.00;99.90;;;;;;5062962;28;20173;-71
2021/06/28 03:50:32;;;;;;;28.73;23.30;;;19.00;99.90;;;;;;5059976;28;20017;-71
2021/06/28 03:52:58;;;;;;;79.10;31.33;;;19.00;99.90;;;;;;5058897;28;20492;-72
2021/06/28 03:55:24;;;;;;;42.78;26.00;;;19.00;99.90;;;;;;5062429;28;20099;-71
2021/06/28 03:57:49;;;;;;;34.25;24.73;;;19.00;99.90;;;;;;5063060;28;20167;-72
2021/06/28 04:00:18;;;;;;;25.30;22.23;;;19.00;99.90;;;;;;5053848;28;20496;-71
2021/06/28 04:02:44;;;;;;;31.45;24.60;;;19.00;99.90;;;;;;5063089;28;20105;-71
2021/06/28 04:05:15;;;;;;;28.40;24.92;;;19.00;99.90;;;;;;5054068;28;20127;-71
2021/06/28 04:07:41;;;;;;;28.60;23.88;;;19.00;99.90;;;;;;5057814;28;20838;-71
2021/06/28 04:10:08;;;;;;;26.52;23.73;;;19.00;99.90;;;;;;5065698;28;20579;-74
2021/06/28 04:12:34;;;;;;;28.30;22.60;;;19.00;99.90;;;;;;5061496;28;20040;-71
2021/06/28 04:15:00;;;;;;;24.73;19.05;;;19.00;99.90;;;;;;5054926;28;20021;-72
2021/06/28 04:17:26;;;;;;;24.20;19.83;;;19.00;99.90;;;;;;5062625;28;20118;-74
2021/06/28 04:19:52;;;;;;;25.05;20.05;;;19.00;99.90;;;;;;5064313;28;20107;-74
2021/06/28 04:22:18;;;;;;;20.05;17.60;;;19.00;99.90;;;;;;5056441;28;20084;-73
2021/06/28 04:24:43;;;;;;;22.85;19.90;;;19.00;99.90;;;;;;5060303;28;20245;-74
2021/06/28 04:27:09;;;;;;;23.65;20.63;;;19.00;99.90;;;;;;5061114;28;20032;-74
2021/06/28 04:29:35;;;;;;;29.30;21.35;;;19.10;99.90;;;;;;5054453;28;20113;-73
2021/06/28 04:32:02;;;;;;;23.25;20.85;;;19.10;99.90;;;;;;5061335;28;20017;-73
2021/06/28 04:34:28;;;;;;;26.10;19.65;;;19.10;99.90;;;;;;5054118;28;20388;-73
2021/06/28 04:36:53;;;;;;;23.08;19.65;;;19.00;99.90;;;;;;5064629;28;20030;-73
2021/06/28 04:39:19;;;;;;;27.50;21.55;;;19.10;99.90;;;;;;5064460;28;20522;-73
2021/06/28 04:41:45;;;;;;;28.42;23.25;;;19.10;99.90;;;;;;5060107;28;20031;-73
2021/06/28 04:44:10;;;;;;;29.98;21.67;;;19.10;99.90;;;;;;5059264;28;20094;-72
2021/06/28 04:46:36;;;;;;;24.85;22.38;;;19.20;99.90;;;;;;5065668;28;20040;-73
2021/06/28 04:49:02;;;;;;;22.70;20.40;;;19.20;99.90;;;;;;5050979;28;20492;-73
2021/06/28 04:51:27;;;;;;;22.33;19.80;;;19.20;99.90;;;;;;5061392;28;20025;-73
2021/06/28 04:53:53;;;;;;;25.63;20.50;;;19.20;99.90;;;;;;5051216;28;20120;-73
2021/06/28 04:56:18;;;;;;;24.77;20.98;;;19.20;99.90;;;;;;5065987;28;20032;-73
2021/06/28 04:58:44;;;;;;;26.77;23.35;;;19.10;99.90;;;;;;5058166;28;20029;-73
2021/06/28 05:01:09;;;;;;;24.98;21.10;;;19.10;99.90;;;;;;5063742;28;20504;-73
2021/06/28 05:03:35;;;;;;;36.03;27.60;;;19.20;99.90;;;;;;5066586;28;20028;-73
2021/06/28 05:06:00;;;;;;;26.73;21.60;;;19.10;99.90;;;;;;5057243;28;20029;-73
2021/06/28 05:08:26;;;;;;;22.77;20.30;;;19.10;99.90;;;;;;5064494;28;20115;-73
2021/06/28 05:10:52;;;;;;;23.23;20.85;;;19.20;99.90;;;;;;5063261;28;20511;-73
2021/06/28 05:13:17;;;;;;;25.75;20.65;;;19.20;99.90;;;;;;5068313;28;20033;-73
2021/06/28 05:15:43;;;;;;;27.92;23.95;;;19.20;99.90;;;;;;5065558;28;20484;-73
2021/06/28 05:18:08;;;;;;;27.73;23.00;;;19.30;99.90;;;;;;5064090;28;20039;-73
2021/06/28 05:20:34;;;;;;;48.65;29.55;;;19.30;99.90;;;;;;5064980;28;20028;-73
2021/06/28 05:22:59;;;;;;;23.63;20.05;;;19.20;99.90;;;;;;5069106;28;20065;-73
2021/06/28 05:25:25;;;;;;;32.75;24.85;;;19.30;99.90;;;;;;5068169;28;20039;-74
2021/06/28 05:27:51;;;;;;;27.90;20.65;;;19.30;99.90;;;;;;5060652;28;20468;-73
2021/06/28 05:30:18;;;;;;;25.73;21.13;;;19.40;99.90;;;;;;5063716;28;20401;-73
2021/06/28 05:32:44;;;;;;;27.67;21.50;;;19.40;99.90;;;;;;5059914;28;20381;-73
2021/06/28 05:35:12;;;;;;;24.55;22.15;;;19.50;99.90;;;;;;5061250;28;20059;-73
2021/06/28 05:37:39;;;;;;;29.45;24.67;;;19.50;99.90;;;;;;5070598;28;20039;-73
2021/06/28 05:40:06;;;;;;;29.90;25.65;;;19.50;99.90;;;;;;5078323;28;20046;-73
2021/06/28 05:42:32;;;;;;;26.60;23.48;;;19.50;99.90;;;;;;5060871;28;20033;-73
2021/06/28 05:44:57;;;;;;;28.88;23.13;;;19.50;99.90;;;;;;5053925;28;20087;-73
2021/06/28 05:47:23;;;;;;;27.85;24.95;;;19.60;99.90;;;;;;5064191;28;20115;-73
2021/06/28 05:49:50;;;;;;;28.08;25.25;;;19.70;99.90;;;;;;5065940;28;20028;-73
2021/06/28 05:52:19;;;;;;;34.40;28.10;;;19.70;99.90;;;;;;5057647;28;20056;-73
2021/06/28 05:54:45;;;;;;;33.88;28.70;;;19.70;99.90;;;;;;5064982;28;20036;-73
2021/06/28 05:57:11;;;;;;;35.88;29.77;;;19.80;99.90;;;;;;5067509;28;20396;-73
2021/06/28 05:59:36;;;;;;;31.42;28.02;;;19.80;99.90;;;;;;5064921;28;20021;-73
2021/06/28 06:02:02;;;;;;;32.78;28.00;;;19.90;99.90;;;;;;5050097;28;20028;-74
2021/06/28 06:04:28;;;;;;;38.72;30.35;;;19.90;99.90;;;;;;5057389;28;20021;-74
2021/06/28 06:06:54;;;;;;;43.20;31.65;;;20.00;99.90;;;;;;5065092;28;20029;-75
2021/06/28 06:09:19;;;;;;;38.65;31.70;;;20.00;99.90;;;;;;5059389;28;20073;-75
2021/06/28 06:11:45;;;;;;;42.15;34.40;;;20.10;99.90;;;;;;5057156;28;20571;-74
2021/06/28 06:14:10;;;;;;;42.10;34.38;;;20.10;99.90;;;;;;5066760;28;20029;-75
2021/06/28 06:16:36;;;;;;;58.72;41.78;;;20.10;99.90;;;;;;5065229;28;20025;-75
2021/06/28 06:19:01;;;;;;;61.95;45.60;;;20.20;99.90;;;;;;5054925;28;20029;-75
2021/06/28 06:21:27;;;;;;;47.53;38.20;;;20.30;99.90;;;;;;5062321;28;20107;-75
2021/06/28 06:23:53;;;;;;;63.60;46.30;;;20.30;99.90;;;;;;5060715;28;20032;-75
2021/06/28 06:26:19;;;;;;;38.00;31.92;;;20.30;99.90;;;;;;5064619;28;20029;-75
2021/06/28 06:28:45;;;;;;;47.88;38.88;;;20.30;99.90;;;;;;5065961;28;20059;-75
2021/06/28 06:31:12;;;;;;;64.00;43.13;;;20.40;99.90;;;;;;5055761;28;20028;-74
2021/06/28 06:33:38;;;;;;;50.08;35.88;;;20.40;99.90;;;;;;5063495;28;20028;-75
2021/06/28 06:36:04;;;;;;;47.65;40.85;;;20.50;99.90;;;;;;5058856;28;20032;-75
2021/06/28 06:38:30;;;;;;;54.05;44.60;;;20.60;99.90;;;;;;5052714;28;20032;-75
2021/06/28 06:40:56;;;;;;;49.88;39.97;;;20.70;99.90;;;;;;5056482;28;20037;-74
2021/06/28 06:43:21;;;;;;;43.25;35.90;;;20.80;99.90;;;;;;5054199;28;20040;-75
2021/06/28 06:45:47;;;;;;;55.42;44.92;;;20.90;99.90;;;;;;5051017;28;20386;-75
2021/06/28 06:48:13;;;;;;;56.35;45.53;;;21.00;99.90;;;;;;5055954;28;20040;-75
2021/06/28 06:50:39;;;;;;;70.43;50.83;;;21.10;99.90;;;;;;5056110;28;20056;-75
2021/06/28 06:53:05;;;;;;;61.67;44.75;;;21.20;99.90;;;;;;5056223;28;20024;-76
2021/06/28 06:55:34;;;;;;;45.95;40.45;;;21.20;99.90;;;;;;5052050;28;20025;-75
2021/06/28 06:58:00;;;;;;;50.20;40.78;;;21.30;99.90;;;;;;5060099;28;20074;-75
2021/06/28 07:00:26;;;;;;;40.03;35.70;;;21.50;99.90;;;;;;5041988;28;20032;-76
2021/06/28 07:02:52;;;;;;;41.25;36.75;;;21.70;99.90;;;;;;5026796;28;20036;-75
2021/06/28 07:05:20;;;;;;;60.47;47.13;;;21.80;99.90;;;;;;5047077;28;20033;-74
2021/06/28 07:07:46;;;;;;;57.05;47.03;;;21.80;99.90;;;;;;5044457;28;20280;-75
2021/06/28 07:10:14;;;;;;;41.13;36.58;;;22.00;99.90;;;;;;5050593;28;20107;-74
2021/06/28 07:12:41;;;;;;;43.50;37.67;;;22.10;99.90;;;;;;5057639;28;20032;-74
2021/06/28 07:15:08;;;;;;;50.38;42.20;;;22.10;99.90;;;;;;5059320;28;20028;-75
2021/06/28 07:17:34;;;;;;;53.72;46.00;;;22.20;99.90;;;;;;5053005;28;20025;-74
2021/06/28 07:20:00;;;;;;;43.45;38.70;;;22.20;99.90;;;;;;5057628;28;20077;-75
2021/06/28 07:22:25;;;;;;;48.70;41.22;;;22.20;99.90;;;;;;5052706;28;20068;-75
2021/06/28 07:24:51;;;;;;;46.60;40.58;;;22.30;99.90;;;;;;5058932;28;20021;-75
2021/06/28 07:27:17;;;;;;;44.67;39.83;;;22.40;99.90;;;;;;5056296;28;20044;-75
2021/06/28 07:29:43;;;;;;;41.58;35.47;;;22.50;99.90;;;;;;5052275;28;20036;-75
2021/06/28 07:32:09;;;;;;;39.35;33.08;;;22.70;99.90;;;;;;5054206;28;20043;-74
2021/06/28 07:34:34;;;;;;;43.15;36.03;;;22.80;99.90;;;;;;5049740;28;20500;-75
2021/06/28 07:37:01;;;;;;;44.72;39.70;;;22.90;99.90;;;;;;5051111;28;20029;-75
2021/06/28 07:39:26;;;;;;;47.83;39.00;;;22.90;99.90;;;;;;5053587;28;20030;-75
2021/06/28 07:41:52;;;;;;;48.72;40.08;;;23.00;99.90;;;;;;5055232;28;20477;-75
2021/06/28 07:44:22;;;;;;;41.15;35.97;;;23.00;99.90;;;;;;5052124;28;20059;-74
2021/06/28 07:46:48;;;;;;;39.72;34.28;;;22.90;99.90;;;;;;5056834;28;20021;-75
2021/06/28 07:49:16;;;;;;;44.58;38.65;;;22.90;99.90;;;;;;5051079;28;20047;-75
2021/06/28 07:51:42;;;;;;;43.72;37.67;;;22.90;99.90;;;;;;5051768;28;20025;-75
2021/06/28 07:54:09;;;;;;;46.17;39.97;;;22.90;99.90;;;;;;5058473;28;20036;-74
2021/06/28 07:56:35;;;;;;;54.55;42.55;;;22.90;99.90;;;;;;5056893;28;20499;-75
2021/06/28 07:59:02;;;;;;;55.65;43.13;;;22.90;99.90;;;;;;5062069;28;20381;-75
2021/06/28 08:01:30;;;;;;;48.13;40.85;;;23.00;99.90;;;;;;5060536;28;20357;-75
2021/06/28 08:03:56;;;;;;;56.05;42.33;;;22.90;99.90;;;;;;5051325;28;20038;-75
2021/06/28 08:06:22;;;;;;;52.80;43.50;;;22.90;99.90;;;;;;5052302;28;20014;-75
2021/06/28 08:08:51;;;;;;;49.53;41.28;;;22.90;99.90;;;;;;5048180;28;20687;-75
2021/06/28 08:11:19;;;;;;;42.88;37.22;;;22.90;99.90;;;;;;5047525;28;20021;-75
2021/06/28 08:13:47;;;;;;;43.85;38.58;;;22.90;99.90;;;;;;5051262;28;20590;-75
2021/06/28 08:16:15;;;;;;;41.65;35.55;;;23.00;99.90;;;;;;5050757;28;20555;-75
2021/06/28 08:18:44;;;;;;;49.17;39.63;;;23.00;99.90;;;;;;5048977;28;20036;-76
2021/06/28 08:21:10;;;;;;;44.03;37.53;;;23.00;99.90;;;;;;5052908;28;20026;-76
2021/06/28 08:23:36;;;;;;;45.15;37.90;;;23.00;99.90;;;;;;5050314;28;20097;-75
2021/06/28 08:26:02;;;;;;;46.60;39.80;;;23.00;99.90;;;;;;5050914;28;20580;-77
2021/06/28 08:28:28;;;;;;;45.03;36.95;;;23.10;99.90;;;;;;5054142;28;20062;-75
2021/06/28 08:30:54;;;;;;;41.95;35.78;;;23.20;99.90;;;;;;5054356;28;20124;-74
2021/06/28 08:33:20;;;;;;;43.75;37.00;;;23.20;99.90;;;;;;5048141;28;20032;-75
2021/06/28 08:35:46;;;;;;;55.80;46.03;;;23.30;99.90;;;;;;5050037;28;20480;-75
2021/06/28 08:38:12;;;;;;;40.13;34.95;;;23.20;99.90;;;;;;5051568;28;20024;-75
2021/06/28 08:40:39;;;;;;;44.20;38.97;;;23.20;99.90;;;;;;5049680;28;20542;-75
2021/06/28 08:43:05;;;;;;;52.00;41.00;;;23.30;99.90;;;;;;5064224;28;20056;-75
2021/06/28 08:45:38;;;;;;;43.83;37.25;;;23.20;99.90;;;;;;5059665;28;20504;-74
2021/06/28 08:48:06;;;;;;;50.83;39.90;;;23.20;99.90;;;;;;5060375;28;20029;-75
2021/06/28 08:50:33;;;;;;;46.97;38.05;;;23.20;99.90;;;;;;5048570;28;20033;-74
2021/06/28 08:52:59;;;;;;;48.25;41.22;;;23.20;99.90;;;;;;5059988;28;20029;-74
2021/06/28 08:55:25;;;;;;;48.90;41.53;;;23.20;99.90;;;;;;5059849;28;20028;-75
2021/06/28 08:57:50;;;;;;;57.05;44.42;;;23.30;99.90;;;;;;5057784;28;20024;-74
2021/06/28 09:00:17;;;;;;;49.42;43.30;;;23.20;99.90;;;;;;5051793;28;20059;-74
2021/06/28 09:02:43;;;;;;;46.65;41.05;;;23.30;99.90;;;;;;5061049;28;20062;-74
2021/06/28 09:05:11;;;;;;;53.42;44.25;;;23.30;99.90;;;;;;5057180;28;20100;-75
2021/06/28 09:07:37;;;;;;;51.83;44.85;;;23.20;99.90;;;;;;5058507;28;20040;-74
2021/06/28 09:10:04;;;;;;;55.33;45.05;;;23.30;99.90;;;;;;5058531;28;20032;-74
2021/06/28 09:12:30;;;;;;;54.97;46.22;;;23.30;99.90;;;;;;5050118;28;20416;-73
2021/06/28 09:15:00;;;;;;;50.00;43.70;;;23.40;99.90;;;;;;5052765;28;20028;-74
2021/06/28 09:17:39;;;;;;;49.00;41.28;;;23.40;99.90;;;;;;5051749;28;20063;-75
2021/06/28 09:20:12;;;;;;;47.30;40.42;;;23.50;99.90;;;;;;5050572;28;20033;-75
2021/06/28 09:22:39;;;;;;;47.90;40.47;;;23.60;99.90;;;;;;5054297;28;20020;-74
2021/06/28 09:25:07;;;;;;;57.10;46.83;;;23.60;99.90;;;;;;5058135;28;20542;-75
2021/06/28 09:27:44;;;;;;;48.83;41.50;;;23.70;99.90;;;;;;5049693;28;20024;-75
2021/06/28 09:30:20;;;;;;;47.58;42.25;;;23.80;99.90;;;;;;5053150;28;20048;-74
2021/06/28 09:32:59;;;;;;;51.78;44.10;;;23.90;99.90;;;;;;5054137;28;20036;-74
2021/06/28 09:35:39;;;;;;;48.67;41.60;;;23.90;99.90;;;;;;5050876;28;20106;-75
2021/06/28 09:38:27;;;;;;;47.95;40.00;;;23.90;99.90;;;;;;5070297;28;20032;-75
2021/06/28 09:40:53;;;;;;;44.40;39.03;;;23.80;99.90;;;;;;5059096;28;20013;-75
2021/06/28 09:43:26;;;;;;;46.08;40.65;;;23.70;99.90;;;;;;5061892;28;20477;-75
2021/06/28 09:45:56;;;;;;;61.60;46.97;;;23.60;99.90;;;;;;5053730;28;20039;-75
2021/06/28 09:48:27;;;;;;;50.10;44.55;;;23.50;99.90;;;;;;5045041;28;20032;-74
2021/06/28 09:51:18;;;;;;;56.58;46.63;;;23.50;99.90;;;;;;5043950;28;20470;-74
2021/06/28 09:53:44;;;;;;;50.25;44.20;;;23.40;99.90;;;;;;5044576;28;20041;-74
2021/06/28 09:56:36;;;;;;;50.35;42.75;;;23.40;99.90;;;;;;5063980;28;20029;-74
2021/06/28 09:59:25;;;;;;;65.72;51.08;;;23.40;99.90;;;;;;5067452;28;20123;-74
2021/06/28 10:02:09;;;;;;;53.53;43.85;;;23.30;99.90;;;;;;5055466;28;20090;-74
2021/06/28 10:04:59;;;;;;;51.60;43.83;;;23.30;99.90;;;;;;5063698;28;20017;-75
2021/06/28 10:07:31;;;;;;;57.33;44.83;;;23.30;99.90;;;;;;5051315;28;20025;-75
2021/06/28 10:10:06;;;;;;;54.63;44.17;;;23.20;99.90;;;;;;5061463;28;20025;-75
2021/06/28 10:12:32;;;;;;;54.75;45.40;;;23.20;99.90;;;;;;5049369;28;20855;-74
2021/06/28 10:14:58;;;;;;;54.63;44.97;;;23.20;99.90;;;;;;5056549;28;20087;-74
2021/06/28 10:17:24;;;;;;;53.88;45.17;;;23.20;99.90;;;;;;5060148;28;20502;-75
2021/06/28 10:19:50;;;;;;;55.88;44.70;;;23.30;99.90;;;;;;5060925;28;20110;-75
2021/06/28 10:22:16;;;;;;;51.70;44.08;;;23.20;99.90;;;;;;5056624;28;20037;-75
2021/06/28 10:24:42;;;;;;;59.85;50.25;;;23.30;99.90;;;;;;5060023;28;20799;-75
2021/06/28 10:27:08;;;;;;;58.88;47.38;;;23.30;99.90;;;;;;5048317;28;20025;-75
2021/06/28 10:29:34;;;;;;;58.22;49.60;;;23.30;99.90;;;;;;5056916;28;20613;-74
2021/06/28 10:32:09;;;;;;;77.47;57.00;;;23.20;99.90;;;;;;5051259;28;20072;-76
2021/06/28 10:34:37;;;;;;;71.72;54.38;;;23.20;99.90;;;;;;5048485;28;20102;-75
2021/06/28 10:37:23;;;;;;;78.82;57.50;;;23.20;99.90;;;;;;5060734;28;20017;-75
2021/06/28 10:39:56;;;;;;;84.95;61.65;;;23.20;99.90;;;;;;5064867;28;20033;-75
2021/06/28 10:42:32;;;;;;;98.25;68.43;;;23.20;99.90;;;;;;5061405;28;20430;-76
2021/06/28 10:44:59;;;;;;;76.35;56.55;;;23.20;99.90;;;;;;5053247;28;20113;-75
2021/06/28 10:47:27;;;;;;;84.28;57.97;;;23.10;99.90;;;;;;5044909;28;20084;-76
2021/06/28 10:49:53;;;;;;;193.07;84.05;;;23.10;99.90;;;;;;5050971;28;20123;-74
2021/06/28 10:52:34;;;;;;;65.22;50.58;;;23.00;99.90;;;;;;5045209;28;20021;-73
2021/06/28 10:55:01;;;;;;;65.10;51.85;;;23.00;99.90;;;;;;5047192;28;20450;-74
2021/06/28 10:57:41;;;;;;;70.38;51.50;;;23.00;99.90;;;;;;5043931;28;20026;-73
2021/06/28 11:00:07;;;;;;;81.40;59.33;;;23.00;99.90;;;;;;5050974;28;20021;-74
2021/06/28 11:02:38;;;;;;;62.03;50.60;;;23.00;99.90;;;;;;5050244;28;20056;-74
2021/06/28 11:05:07;;;;;;;70.80;53.13;;;23.00;99.90;;;;;;5058135;28;20377;-73
2021/06/28 11:07:50;;;;;;;82.93;57.47;;;22.90;99.90;;;;;;5053933;28;20025;-73
2021/06/28 11:10:39;;;;;;;64.88;47.42;;;22.90;99.90;;;;;;5054061;28;20119;-72
2021/06/28 11:13:34;;;;;;;51.42;40.65;;;22.90;99.90;;;;;;5050722;28;20036;-73
2021/06/28 11:16:29;;;;;;;56.63;44.95;;;22.90;99.90;;;;;;5047426;28;20035;-73
2021/06/28 11:18:55;;;;;;;51.17;39.88;;;22.90;99.90;;;;;;5043807;28;20036;-74
2021/06/28 11:21:41;;;;;;;63.85;47.55;;;22.90;99.90;;;;;;5056282;28;20020;-73
2021/06/28 11:24:07;;;;;;;48.58;41.45;;;22.90;99.90;;;;;;5064876;28;20029;-74
2021/06/28 11:26:34;;;;;;;60.20;45.00;;;22.90;99.90;;;;;;5052909;28;20032;-75
2021/06/28 11:29:01;;;;;;;62.10;47.22;;;22.90;99.90;;;;;;5050264;28;20029;-74
2021/06/28 11:31:28;;;;;;;66.07;49.08;;;22.80;99.90;;;;;;5044343;28;20025;-75
2021/06/28 11:33:55;;;;;;;61.22;46.80;;;22.80;99.90;;;;;;5050963;28;20088;-76
2021/06/28 11:36:28;;;;;;;54.67;42.75;;;22.80;99.90;;;;;;5046874;28;20028;-74
2021/06/28 11:39:00;;;;;;;60.45;46.80;;;22.90;99.90;;;;;;5048259;28;20025;-76
2021/06/28 11:41:27;;;;;;;59.65;45.65;;;22.90;99.90;;;;;;5050472;28;20100;-74
2021/06/28 11:43:56;;;;;;;76.28;51.35;;;22.90;99.90;;;;;;5061407;28;20028;-76
2021/06/28 11:46:30;;;;;;;59.35;45.97;;;23.00;99.90;;;;;;5048650;28;20028;-75
2021/06/28 11:49:12;;;;;;;54.22;45.33;;;23.00;99.90;;;;;;5052324;28;20115;-75
2021/06/28 11:51:41;;;;;;;57.35;45.50;;;23.00;99.90;;;;;;5042560;28;20100;-75
2021/06/28 11:54:15;;;;;;;50.30;40.92;;;23.00;99.90;;;;;;5046827;28;20028;-74
2021/06/28 11:56:52;;;;;;;44.35;37.67;;;23.10;99.90;;;;;;5047084;28;20466;-73
2021/06/28 11:59:23;;;;;;;37.17;31.10;;;23.00;99.90;;;;;;5051743;28;20028;-75
2021/06/28 12:01:51;;;;;;;39.17;32.53;;;23.10;99.90;;;;;;5069469;28;20420;-74
2021/06/28 12:04:19;;;;;;;41.35;34.45;;;23.20;99.90;;;;;;5052924;28;20043;-75
2021/06/28 12:06:46;;;;;;;38.35;33.95;;;23.30;99.90;;;;;;5049924;28;20082;-73
2021/06/28 12:09:20;;;;;;;39.05;33.03;;;23.40;99.90;;;;;;5050754;28;20559;-74
2021/06/28 12:11:50;;;;;;;39.38;34.03;;;23.60;99.90;;;;;;5042851;28;20028;-74
2021/06/28 12:14:44;;;;;;;39.60;34.08;;;23.90;99.90;;;;;;5048703;28;20037;-75
2021/06/28 12:17:13;;;;;;;34.70;30.92;;;23.90;99.90;;;;;;5049963;28;20104;-74
2021/06/28 12:19:48;;;;;;;40.15;35.55;;;24.00;99.90;;;;;;5045639;28;20082;-73
2021/06/28 12:22:15;;;;;;;42.53;36.15;;;24.10;99.90;;;;;;5045768;28;20424;-74
2021/06/28 12:24:42;;;;;;;37.72;33.25;;;24.20;99.90;;;;;;5052243;28;20388;-74
2021/06/28 12:27:09;;;;;;;46.80;37.90;;;24.30;99.90;;;;;;5052501;28;20096;-75
2021/06/28 12:29:40;;;;;;;37.03;32.45;;;24.20;99.90;;;;;;5046807;28;20120;-75